< < Back
Terminal Aerodrome Forecast


Current Version              Previous Versions:   1  2  3  4  5  6  7  8  9  

Terminal Aerodrome Forecast

771
FTUS42 KGSP 241737
TAFAND
TAF
KAND 241737Z 2418/2518 25010G20KT P6SM SCT025
     FM242300 26007KT P6SM SCT050
     FM250300 28005KT P6SM SCT200
     FM251400 31004KT P6SM BKN120=



Latest METAR

258
SAUS70 KWBC 250200
MTRAND
METAR KAND 250156Z AUTO 21004KT 10SM CLR 16/13 A2990 RMK AO2 SLP121
T01560133


USA.gov is the U.S. government's official web portal to all federal, state and local government web resources and services.